sensor_id;sensor_type;location;lat;lon;timestamp;temperature;humidity
5520;DHT22;2782;52.362;10.012;2023-01-15T00:00:07;19.80;64.80
5520;DHT22;2782;52.362;10.012;2023-01-15T00:01:19;19.80;64.80
5520;DHT22;2782;52.362;10.012;2023-01-15T00:02:20;19.80;64.90
5520;DHT22;2782;52.362;10.012;2023-01-15T00:03:21;19.80;64.90
5520;DHT22;2782;52.362;10.012;2023-01-15T00:04:22;19.80;64.90
5520;DHT22;2782;52.362;10.012;2023-01-15T00:05:23;19.70;64.80
5520;DHT22;2782;52.362;10.012;2023-01-15T00:06:25;19.70;64.90
5520;DHT22;2782;52.362;10.012;2023-01-15T00:07:27;19.70;65.00
5520;DHT22;2782;52.362;10.012;2023-01-15T00:08:29;19.70;65.00
5520;DHT22;2782;52.362;10.012;2023-01-15T00:09:29;19.70;65.00
5520;DHT22;2782;52.362;10.012;2023-01-15T00:10:32;19.70;65.00
5520;DHT22;2782;52.362;10.012;2023-01-15T00:11:34;19.70;65.10
5520;DHT22;2782;52.362;10.012;2023-01-15T00:12:35;19.70;65.10
5520;DHT22;2782;52.362;10.012;2023-01-15T00:13:36;19.70;65.10
5520;DHT22;2782;52.362;10.012;2023-01-15T00:14:38;19.70;65.10
5520;DHT22;2782;52.362;10.012;2023-01-15T00:15:38;19.70;65.10
5520;DHT22;2782;52.362;10.012;2023-01-15T00:16:40;19.70;65.20
5520;DHT22;2782;52.362;10.012;2023-01-15T00:17:40;19.70;65.20
5520;DHT22;2782;52.362;10.012;2023-01-15T00:18:42;19.70;65.20
5520;DHT22;2782;52.362;10.012;2023-01-15T00:19:43;19.70;65.20
5520;DHT22;2782;52.362;10.012;2023-01-15T00:20:44;19.70;65.20
5520;DHT22;2782;52.362;10.012;2023-01-15T00:21:45;19.70;65.20
5520;DHT22;2782;52.362;10.012;2023-01-15T00:22:47;19.70;65.20
5520;DHT22;2782;52.362;10.012;2023-01-15T00:23:48;19.70;65.20
5520;DHT22;2782;52.362;10.012;2023-01-15T00:25:08;19.70;65.20
5520;DHT22;2782;52.362;10.012;2023-01-15T00:26:30;19.70;65.30
5520;DHT22;2782;52.362;10.012;2023-01-15T00:27:50;19.60;65.20
5520;DHT22;2782;52.362;10.012;2023-01-15T00:28:51;19.60;66.00
5520;DHT22;2782;52.362;10.012;2023-01-15T00:29:52;19.60;65.30
5520;DHT22;2782;52.362;10.012;2023-01-15T00:30:54;19.60;65.40
5520;DHT22;2782;52.362;10.012;2023-01-15T00:31:56;19.60;65.40
5520;DHT22;2782;52.362;10.012;2023-01-15T00:32:58;19.60;65.40
5520;DHT22;2782;52.362;10.012;2023-01-15T00:33:59;19.60;65.40
5520;DHT22;2782;52.362;10.012;2023-01-15T00:35:01;19.60;65.40
5520;DHT22;2782;52.362;10.012;2023-01-15T00:36:01;19.60;65.40
5520;DHT22;2782;52.362;10.012;2023-01-15T00:37:03;19.60;65.40
5520;DHT22;2782;52.362;10.012;2023-01-15T00:38:04;19.60;65.40
5520;DHT22;2782;52.362;10.012;2023-01-15T00:39:05;19.60;65.40
5520;DHT22;2782;52.362;10.012;2023-01-15T00:40:08;19.60;65.40
5520;DHT22;2782;52.362;10.012;2023-01-15T00:41:09;19.60;65.40
5520;DHT22;2782;52.362;10.012;2023-01-15T00:42:12;19.60;65.40
5520;DHT22;2782;52.362;10.012;2023-01-15T00:43:12;19.60;65.40
5520;DHT22;2782;52.362;10.012;2023-01-15T00:44:14;19.50;65.30
5520;DHT22;2782;52.362;10.012;2023-01-15T00:45:15;19.50;65.30
5520;DHT22;2782;52.362;10.012;2023-01-15T00:46:17;19.50;65.30
5520;DHT22;2782;52.362;10.012;2023-01-15T00:47:17;19.50;65.30
5520;DHT22;2782;52.362;10.012;2023-01-15T00:48:19;19.60;65.50
5520;DHT22;2782;52.362;10.012;2023-01-15T00:49:20;19.60;65.50
5520;DHT22;2782;52.362;10.012;2023-01-15T00:50:21;19.60;65.50
5520;DHT22;2782;52.362;10.012;2023-01-15T00:51:22;19.50;65.40
5520;DHT22;2782;52.362;10.012;2023-01-15T00:52:24;19.50;65.40
5520;DHT22;2782;52.362;10.012;2023-01-15T00:53:25;19.50;65.40
5520;DHT22;2782;52.362;10.012;2023-01-15T00:54:26;19.50;65.50
5520;DHT22;2782;52.362;10.012;2023-01-15T00:55:28;19.50;65.50
5520;DHT22;2782;52.362;10.012;2023-01-15T00:56:29;19.50;65.50
5520;DHT22;2782;52.362;10.012;2023-01-15T00:57:32;19.50;65.50
5520;DHT22;2782;52.362;10.012;2023-01-15T00:58:32;19.50;65.50
5520;DHT22;2782;52.362;10.012;2023-01-15T00:59:34;19.50;65.60
5520;DHT22;2782;52.362;10.012;2023-01-15T01:00:35;19.50;65.60
5520;DHT22;2782;52.362;10.012;2023-01-15T01:01:36;19.50;65.70
5520;DHT22;2782;52.362;10.012;2023-01-15T01:02:37;19.50;65.70
5520;DHT22;2782;52.362;10.012;2023-01-15T01:03:39;19.50;65.80
5520;DHT22;2782;52.362;10.012;2023-01-15T01:04:39;19.40;65.70
5520;DHT22;2782;52.362;10.012;2023-01-15T01:05:41;19.50;65.80
5520;DHT22;2782;52.362;10.012;2023-01-15T01:06:42;19.50;65.90
5520;DHT22;2782;52.362;10.012;2023-01-15T01:07:43;19.50;66.00
5520;DHT22;2782;52.362;10.012;2023-01-15T01:08:44;19.40;65.90
5520;DHT22;2782;52.362;10.012;2023-01-15T01:09:47;19.50;66.00
5520;DHT22;2782;52.362;10.012;2023-01-15T01:10:47;19.50;66.80
5520;DHT22;2782;52.362;10.012;2023-01-15T01:11:49;19.50;66.20
5520;DHT22;2782;52.362;10.012;2023-01-15T01:12:51;19.40;66.10
5520;DHT22;2782;52.362;10.012;2023-01-15T01:13:54;19.40;66.10
5520;DHT22;2782;52.362;10.012;2023-01-15T01:14:54;19.40;66.20
5520;DHT22;2782;52.362;10.012;2023-01-15T01:15:57;19.40;66.20
5520;DHT22;2782;52.362;10.012;2023-01-15T01:16:57;19.40;66.20
5520;DHT22;2782;52.362;10.012;2023-01-15T01:17:59;19.40;66.30
5520;DHT22;2782;52.362;10.012;2023-01-15T01:19:02;19.40;66.30
5520;DHT22;2782;52.362;10.012;2023-01-15T01:20:04;19.40;66.30
5520;DHT22;2782;52.362;10.012;2023-01-15T01:21:05;19.40;66.30
5520;DHT22;2782;52.362;10.012;2023-01-15T01:22:07;19.40;66.40
5520;DHT22;2782;52.362;10.012;2023-01-15T01:23:08;19.40;66.40
5520;DHT22;2782;52.362;10.012;2023-01-15T01:24:10;19.40;66.40
5520;DHT22;2782;52.362;10.012;2023-01-15T01:25:11;19.30;66.30
5520;DHT22;2782;52.362;10.012;2023-01-15T01:26:13;19.30;66.30
5520;DHT22;2782;52.362;10.012;2023-01-15T01:27:13;19.30;66.30
5520;DHT22;2782;52.362;10.012;2023-01-15T01:28:19;19.40;66.50
5520;DHT22;2782;52.362;10.012;2023-01-15T01:29:20;19.30;66.30
5520;DHT22;2782;52.362;10.012;2023-01-15T01:30:22;19.30;66.40
5520;DHT22;2782;52.362;10.012;2023-01-15T01:31:23;19.30;66.40
5520;DHT22;2782;52.362;10.012;2023-01-15T01:32:25;19.30;66.50
5520;DHT22;2782;52.362;10.012;2023-01-15T01:33:26;19.30;66.50
5520;DHT22;2782;52.362;10.012;2023-01-15T01:34:27;19.30;66.40
5520;DHT22;2782;52.362;10.012;2023-01-15T01:35:28;19.30;66.50
5520;DHT22;2782;52.362;10.012;2023-01-15T01:36:31;19.30;66.50
5520;DHT22;2782;52.362;10.012;2023-01-15T01:37:32;19.30;66.50
5520;DHT22;2782;52.362;10.012;2023-01-15T01:38:34;19.30;66.50
5520;DHT22;2782;52.362;10.012;2023-01-15T01:39:34;19.30;66.50
5520;DHT22;2782;52.362;10.012;2023-01-15T01:40:37;19.30;66.50
5520;DHT22;2782;52.362;10.012;2023-01-15T01:41:40;19.30;66.60
5520;DHT22;2782;52.362;10.012;2023-01-15T01:42:41;19.30;66.60
5520;DHT22;2782;52.362;10.012;2023-01-15T01:43:56;19.30;66.70
5520;DHT22;2782;52.362;10.012;2023-01-15T01:45:06;19.30;66.70
5520;DHT22;2782;52.362;10.012;2023-01-15T01:46:09;19.20;66.60
5520;DHT22;2782;52.362;10.012;2023-01-15T01:47:11;19.20;66.60
5520;DHT22;2782;52.362;10.012;2023-01-15T01:48:16;19.20;66.60
5520;DHT22;2782;52.362;10.012;2023-01-15T01:49:19;19.20;66.70
5520;DHT22;2782;52.362;10.012;2023-01-15T01:50:20;19.20;66.60
5520;DHT22;2782;52.362;10.012;2023-01-15T01:51:25;19.20;66.60
5520;DHT22;2782;52.362;10.012;2023-01-15T01:52:31;19.20;66.60
5520;DHT22;2782;52.362;10.012;2023-01-15T01:53:33;19.20;66.80
5520;DHT22;2782;52.362;10.012;2023-01-15T01:54:35;19.20;66.70
5520;DHT22;2782;52.362;10.012;2023-01-15T01:55:37;19.20;66.70
5520;DHT22;2782;52.362;10.012;2023-01-15T01:56:39;19.20;66.70
5520;DHT22;2782;52.362;10.012;2023-01-15T01:57:41;19.20;66.70
5520;DHT22;2782;52.362;10.012;2023-01-15T01:58:44;19.20;66.70
5520;DHT22;2782;52.362;10.012;2023-01-15T01:59:47;19.20;66.70
5520;DHT22;2782;52.362;10.012;2023-01-15T02:00:50;19.10;66.70
5520;DHT22;2782;52.362;10.012;2023-01-15T02:01:52;19.20;66.80
5520;DHT22;2782;52.362;10.012;2023-01-15T02:02:54;19.20;66.80
5520;DHT22;2782;52.362;10.012;2023-01-15T02:03:55;19.20;66.80
5520;DHT22;2782;52.362;10.012;2023-01-15T02:04:57;19.10;66.70
5520;DHT22;2782;52.362;10.012;2023-01-15T02:06:00;19.20;66.80
5520;DHT22;2782;52.362;10.012;2023-01-15T02:07:03;19.10;66.70
5520;DHT22;2782;52.362;10.012;2023-01-15T02:08:05;19.20;66.80
5520;DHT22;2782;52.362;10.012;2023-01-15T02:09:07;19.10;66.70
5520;DHT22;2782;52.362;10.012;2023-01-15T02:10:13;19.10;66.70
5520;DHT22;2782;52.362;10.012;2023-01-15T02:11:17;19.10;66.70
5520;DHT22;2782;52.362;10.012;2023-01-15T02:12:24;19.20;66.90
5520;DHT22;2782;52.362;10.012;2023-01-15T02:13:34;19.20;66.90
5520;DHT22;2782;52.362;10.012;2023-01-15T02:14:40;19.10;66.70
5520;DHT22;2782;52.362;10.012;2023-01-15T02:15:46;19.10;66.70
5520;DHT22;2782;52.362;10.012;2023-01-15T02:16:54;19.10;66.80
5520;DHT22;2782;52.362;10.012;2023-01-15T02:18:01;19.10;66.80
5520;DHT22;2782;52.362;10.012;2023-01-15T02:19:16;19.10;66.80
5520;DHT22;2782;52.362;10.012;2023-01-15T02:20:28;19.10;66.80
5520;DHT22;2782;52.362;10.012;2023-01-15T02:21:37;19.10;66.80
5520;DHT22;2782;52.362;10.012;2023-01-15T02:22:53;19.10;66.80
5520;DHT22;2782;52.362;10.012;2023-01-15T02:24:09;19.10;66.90
5520;DHT22;2782;52.362;10.012;2023-01-15T02:25:16;19.00;66.80
5520;DHT22;2782;52.362;10.012;2023-01-15T02:26:36;19.00;66.80
5520;DHT22;2782;52.362;10.012;2023-01-15T02:27:41;19.00;66.80
5520;DHT22;2782;52.362;10.012;2023-01-15T02:28:45;19.00;66.80
5520;DHT22;2782;52.362;10.012;2023-01-15T02:29:53;19.00;66.80
5520;DHT22;2782;52.362;10.012;2023-01-15T02:30:59;19.00;66.80
5520;DHT22;2782;52.362;10.012;2023-01-15T02:32:06;19.00;66.80
5520;DHT22;2782;52.362;10.012;2023-01-15T02:33:12;19.00;66.80
5520;DHT22;2782;52.362;10.012;2023-01-15T02:34:19;19.00;66.80
5520;DHT22;2782;52.362;10.012;2023-01-15T02:35:24;19.00;66.80
5520;DHT22;2782;52.362;10.012;2023-01-15T02:36:29;19.00;66.70
5520;DHT22;2782;52.362;10.012;2023-01-15T02:37:34;18.90;66.60
5520;DHT22;2782;52.362;10.012;2023-01-15T02:38:40;19.00;66.60
5520;DHT22;2782;52.362;10.012;2023-01-15T02:39:44;19.00;66.60
5520;DHT22;2782;52.362;10.012;2023-01-15T02:40:49;19.00;66.50
5520;DHT22;2782;52.362;10.012;2023-01-15T02:41:56;18.90;66.40
5520;DHT22;2782;52.362;10.012;2023-01-15T02:43:00;19.00;66.40
5520;DHT22;2782;52.362;10.012;2023-01-15T02:44:03;19.00;66.40
5520;DHT22;2782;52.362;10.012;2023-01-15T02:45:06;18.90;66.30
5520;DHT22;2782;52.362;10.012;2023-01-15T02:46:10;18.90;66.20
5520;DHT22;2782;52.362;10.012;2023-01-15T02:47:14;18.90;66.20
5520;DHT22;2782;52.362;10.012;2023-01-15T02:48:19;18.90;67.00
5520;DHT22;2782;52.362;10.012;2023-01-15T02:49:23;18.90;65.50
5520;DHT22;2782;52.362;10.012;2023-01-15T02:50:28;18.90;65.60
5520;DHT22;2782;52.362;10.012;2023-01-15T02:51:32;18.90;65.80
5520;DHT22;2782;52.362;10.012;2023-01-15T02:52:41;18.90;66.10
5520;DHT22;2782;52.362;10.012;2023-01-15T02:53:45;18.90;66.40
5520;DHT22;2782;52.362;10.012;2023-01-15T02:54:52;18.80;66.40
5520;DHT22;2782;52.362;10.012;2023-01-15T02:55:58;18.90;66.70
5520;DHT22;2782;52.362;10.012;2023-01-15T02:57:06;18.80;66.80
5520;DHT22;2782;52.362;10.012;2023-01-15T02:58:13;18.80;66.90
5520;DHT22;2782;52.362;10.012;2023-01-15T02:59:18;18.90;67.40
5520;DHT22;2782;52.362;10.012;2023-01-15T03:00:23;18.80;67.00
5520;DHT22;2782;52.362;10.012;2023-01-15T03:01:30;18.90;66.90
5520;DHT22;2782;52.362;10.012;2023-01-15T03:02:36;18.80;66.60
5520;DHT22;2782;52.362;10.012;2023-01-15T03:03:45;18.80;66.50
5520;DHT22;2782;52.362;10.012;2023-01-15T03:04:50;18.80;66.40
5520;DHT22;2782;52.362;10.012;2023-01-15T03:05:56;18.80;66.40
5520;DHT22;2782;52.362;10.012;2023-01-15T03:07:04;18.80;66.40
5520;DHT22;2782;52.362;10.012;2023-01-15T03:08:07;18.80;66.30
5520;DHT22;2782;52.362;10.012;2023-01-15T03:09:09;18.80;66.20
5520;DHT22;2782;52.362;10.012;2023-01-15T03:10:10;18.80;66.20
5520;DHT22;2782;52.362;10.012;2023-01-15T03:11:13;18.80;66.20
5520;DHT22;2782;52.362;10.012;2023-01-15T03:12:18;18.80;66.20
5520;DHT22;2782;52.362;10.012;2023-01-15T03:13:26;18.80;66.20
5520;DHT22;2782;52.362;10.012;2023-01-15T03:14:32;18.80;66.20
5520;DHT22;2782;52.362;10.012;2023-01-15T03:15:41;18.80;66.20
5520;DHT22;2782;52.362;10.012;2023-01-15T03:17:08;18.80;66.20
5520;DHT22;2782;52.362;10.012;2023-01-15T03:18:14;18.80;66.10
5520;DHT22;2782;52.362;10.012;2023-01-15T03:19:22;18.70;66.00
5520;DHT22;2782;52.362;10.012;2023-01-15T03:20:26;18.70;66.00
5520;DHT22;2782;52.362;10.012;2023-01-15T03:21:31;18.70;66.00
5520;DHT22;2782;52.362;10.012;2023-01-15T03:22:37;18.70;66.00
5520;DHT22;2782;52.362;10.012;2023-01-15T03:23:44;18.80;66.10
5520;DHT22;2782;52.362;10.012;2023-01-15T03:24:48;18.70;66.00
5520;DHT22;2782;52.362;10.012;2023-01-15T03:25:50;18.70;65.90
5520;DHT22;2782;52.362;10.012;2023-01-15T03:26:52;18.80;66.00
5520;DHT22;2782;52.362;10.012;2023-01-15T03:27:58;18.70;66.00
5520;DHT22;2782;52.362;10.012;2023-01-15T03:29:02;18.70;65.90
5520;DHT22;2782;52.362;10.012;2023-01-15T03:30:07;18.70;65.80
5520;DHT22;2782;52.362;10.012;2023-01-15T03:31:09;18.70;65.80
5520;DHT22;2782;52.362;10.012;2023-01-15T03:32:10;18.70;65.80
5520;DHT22;2782;52.362;10.012;2023-01-15T03:33:11;18.70;65.70
5520;DHT22;2782;52.362;10.012;2023-01-15T03:34:14;18.70;65.80
5520;DHT22;2782;52.362;10.012;2023-01-15T03:35:39;18.70;65.70
5520;DHT22;2782;52.362;10.012;2023-01-15T03:36:41;18.70;65.70
5520;DHT22;2782;52.362;10.012;2023-01-15T03:37:43;18.70;65.60
5520;DHT22;2782;52.362;10.012;2023-01-15T03:38:44;18.70;65.60
5520;DHT22;2782;52.362;10.012;2023-01-15T03:39:46;18.70;65.60
5520;DHT22;2782;52.362;10.012;2023-01-15T03:40:52;18.70;65.60
5520;DHT22;2782;52.362;10.012;2023-01-15T03:42:04;18.70;65.60
5520;DHT22;2782;52.362;10.012;2023-01-15T03:43:13;18.70;65.60
5520;DHT22;2782;52.362;10.012;2023-01-15T03:44:38;18.70;65.50
5520;DHT22;2782;52.362;10.012;2023-01-15T03:45:42;18.60;65.40
5520;DHT22;2782;52.362;10.012;2023-01-15T03:46:53;18.70;65.60
5520;DHT22;2782;52.362;10.012;2023-01-15T03:48:01;18.70;65.60
5520;DHT22;2782;52.362;10.012;2023-01-15T03:49:06;18.60;65.40
5520;DHT22;2782;52.362;10.012;2023-01-15T03:50:20;18.60;65.30
5520;DHT22;2782;52.362;10.012;2023-01-15T03:51:26;18.60;65.40
5520;DHT22;2782;52.362;10.012;2023-01-15T03:52:32;18.60;65.40
5520;DHT22;2782;52.362;10.012;2023-01-15T03:53:40;18.60;65.40
5520;DHT22;2782;52.362;10.012;2023-01-15T03:54:47;18.60;65.40
5520;DHT22;2782;52.362;10.012;2023-01-15T03:55:53;18.60;65.40
5520;DHT22;2782;52.362;10.012;2023-01-15T03:56:59;18.60;65.30
5520;DHT22;2782;52.362;10.012;2023-01-15T03:58:06;18.60;65.30
5520;DHT22;2782;52.362;10.012;2023-01-15T03:59:16;18.60;65.30
5520;DHT22;2782;52.362;10.012;2023-01-15T04:00:20;18.60;65.30
5520;DHT22;2782;52.362;10.012;2023-01-15T04:01:26;18.60;65.30
5520;DHT22;2782;52.362;10.012;2023-01-15T04:02:29;18.50;65.20
5520;DHT22;2782;52.362;10.012;2023-01-15T04:03:33;18.60;65.30
5520;DHT22;2782;52.362;10.012;2023-01-15T04:04:34;18.50;65.30
5520;DHT22;2782;52.362;10.012;2023-01-15T04:05:36;18.60;65.30
5520;DHT22;2782;52.362;10.012;2023-01-15T04:06:39;18.50;65.10
5520;DHT22;2782;52.362;10.012;2023-01-15T04:07:43;18.50;65.10
5520;DHT22;2782;52.362;10.012;2023-01-15T04:08:45;18.50;65.10
5520;DHT22;2782;52.362;10.012;2023-01-15T04:09:47;18.50;65.10
5520;DHT22;2782;52.362;10.012;2023-01-15T04:10:52;18.50;65.10
5520;DHT22;2782;52.362;10.012;2023-01-15T04:11:57;18.50;65.00
5520;DHT22;2782;52.362;10.012;2023-01-15T04:12:58;18.50;65.10
5520;DHT22;2782;52.362;10.012;2023-01-15T04:14:00;18.50;65.10
5520;DHT22;2782;52.362;10.012;2023-01-15T04:15:02;18.50;65.00
5520;DHT22;2782;52.362;10.012;2023-01-15T04:16:04;18.50;65.00
5520;DHT22;2782;52.362;10.012;2023-01-15T04:17:05;18.50;65.00
5520;DHT22;2782;52.362;10.012;2023-01-15T04:18:06;18.50;65.00
5520;DHT22;2782;52.362;10.012;2023-01-15T04:19:07;18.50;64.90
5520;DHT22;2782;52.362;10.012;2023-01-15T04:20:10;18.50;64.90
5520;DHT22;2782;52.362;10.012;2023-01-15T04:21:11;18.50;64.90
5520;DHT22;2782;52.362;10.012;2023-01-15T04:22:13;18.50;64.90
5520;DHT22;2782;52.362;10.012;2023-01-15T04:23:14;18.50;64.90
5520;DHT22;2782;52.362;10.012;2023-01-15T04:24:15;18.50;64.80
5520;DHT22;2782;52.362;10.012;2023-01-15T04:25:16;18.50;64.80
5520;DHT22;2782;52.362;10.012;2023-01-15T04:26:18;18.50;64.80
5520;DHT22;2782;52.362;10.012;2023-01-15T04:27:18;18.50;64.80
5520;DHT22;2782;52.362;10.012;2023-01-15T04:28:20;18.50;64.80
5520;DHT22;2782;52.362;10.012;2023-01-15T04:29:21;18.50;64.80
5520;DHT22;2782;52.362;10.012;2023-01-15T04:30:24;18.40;64.70
5520;DHT22;2782;52.362;10.012;2023-01-15T04:31:25;18.50;64.70
5520;DHT22;2782;52.362;10.012;2023-01-15T04:32:27;18.40;64.70
5520;DHT22;2782;52.362;10.012;2023-01-15T04:33:27;18.50;64.80
5520;DHT22;2782;52.362;10.012;2023-01-15T04:34:29;18.50;64.70
5520;DHT22;2782;52.362;10.012;2023-01-15T04:35:30;18.40;64.60
5520;DHT22;2782;52.362;10.012;2023-01-15T04:36:31;18.50;64.70
5520;DHT22;2782;52.362;10.012;2023-01-15T04:37:35;18.40;64.60
5520;DHT22;2782;52.362;10.012;2023-01-15T04:38:36;18.40;64.60
5520;DHT22;2782;52.362;10.012;2023-01-15T04:39:38;18.50;64.70
5520;DHT22;2782;52.362;10.012;2023-01-15T04:40:39;18.40;64.60
5520;DHT22;2782;52.362;10.012;2023-01-15T04:41:59;18.40;64.60
5520;DHT22;2782;52.362;10.012;2023-01-15T04:43:17;18.40;64.50
5520;DHT22;2782;52.362;10.012;2023-01-15T04:44:37;18.40;64.50
5520;DHT22;2782;52.362;10.012;2023-01-15T04:45:42;18.40;64.60
5520;DHT22;2782;52.362;10.012;2023-01-15T04:46:44;18.40;64.60
5520;DHT22;2782;52.362;10.012;2023-01-15T04:47:47;18.40;64.60
5520;DHT22;2782;52.362;10.012;2023-01-15T04:48:47;18.40;64.60
5520;DHT22;2782;52.362;10.012;2023-01-15T04:49:49;18.40;64.60
5520;DHT22;2782;52.362;10.012;2023-01-15T04:50:51;18.40;64.60
5520;DHT22;2782;52.362;10.012;2023-01-15T04:51:52;18.40;64.60
5520;DHT22;2782;52.362;10.012;2023-01-15T04:52:54;18.40;64.60
5520;DHT22;2782;52.362;10.012;2023-01-15T04:53:54;18.40;64.60
5520;DHT22;2782;52.362;10.012;2023-01-15T04:54:56;18.40;64.60
5520;DHT22;2782;52.362;10.012;2023-01-15T04:56:01;18.40;64.50
5520;DHT22;2782;52.362;10.012;2023-01-15T04:57:02;18.40;64.40
5520;DHT22;2782;52.362;10.012;2023-01-15T04:58:04;18.40;64.40
5520;DHT22;2782;52.362;10.012;2023-01-15T04:59:05;18.40;64.40
5520;DHT22;2782;52.362;10.012;2023-01-15T05:00:07;18.40;64.40
5520;DHT22;2782;52.362;10.012;2023-01-15T05:01:11;18.40;64.40
5520;DHT22;2782;52.362;10.012;2023-01-15T05:02:13;18.30;64.30
5520;DHT22;2782;52.362;10.012;2023-01-15T05:03:14;18.40;64.40
5520;DHT22;2782;52.362;10.012;2023-01-15T05:04:15;18.40;64.40
5520;DHT22;2782;52.362;10.012;2023-01-15T05:05:16;18.40;64.40
5520;DHT22;2782;52.362;10.012;2023-01-15T05:06:17;18.30;64.30
5520;DHT22;2782;52.362;10.012;2023-01-15T05:07:19;18.30;64.30
5520;DHT22;2782;52.362;10.012;2023-01-15T05:08:20;18.30;64.30
5520;DHT22;2782;52.362;10.012;2023-01-15T05:09:21;18.30;64.40
5520;DHT22;2782;52.362;10.012;2023-01-15T05:10:22;18.30;64.30
5520;DHT22;2782;52.362;10.012;2023-01-15T05:11:23;18.30;64.30
5520;DHT22;2782;52.362;10.012;2023-01-15T05:12:25;18.30;64.30
5520;DHT22;2782;52.362;10.012;2023-01-15T05:13:25;18.30;64.20
5520;DHT22;2782;52.362;10.012;2023-01-15T05:14:27;18.30;64.20
5520;DHT22;2782;52.362;10.012;2023-01-15T05:15:28;18.30;64.20
5520;DHT22;2782;52.362;10.012;2023-01-15T05:16:31;18.30;64.20
5520;DHT22;2782;52.362;10.012;2023-01-15T05:17:32;18.30;64.30
5520;DHT22;2782;52.362;10.012;2023-01-15T05:18:34;18.30;64.20
5520;DHT22;2782;52.362;10.012;2023-01-15T05:19:34;18.30;64.20
5520;DHT22;2782;52.362;10.012;2023-01-15T05:20:36;18.30;64.20
5520;DHT22;2782;52.362;10.012;2023-01-15T05:21:40;18.30;64.20
5520;DHT22;2782;52.362;10.012;2023-01-15T05:22:42;18.30;64.20
5520;DHT22;2782;52.362;10.012;2023-01-15T05:23:42;18.30;64.10
5520;DHT22;2782;52.362;10.012;2023-01-15T05:24:44;18.30;64.10
5520;DHT22;2782;52.362;10.012;2023-01-15T05:25:45;18.30;64.10
5520;DHT22;2782;52.362;10.012;2023-01-15T05:26:46;18.30;64.10
5520;DHT22;2782;52.362;10.012;2023-01-15T05:27:48;18.30;64.10
5520;DHT22;2782;52.362;10.012;2023-01-15T05:28:49;18.30;64.10
5520;DHT22;2782;52.362;10.012;2023-01-15T05:29:50;18.30;64.00
5520;DHT22;2782;52.362;10.012;2023-01-15T05:30:51;18.30;64.10
5520;DHT22;2782;52.362;10.012;2023-01-15T05:31:54;18.30;64.00
5520;DHT22;2782;52.362;10.012;2023-01-15T05:32:55;18.20;63.90
5520;DHT22;2782;52.362;10.012;2023-01-15T05:33:56;18.20;63.90
5520;DHT22;2782;52.362;10.012;2023-01-15T05:34:58;18.30;64.10
5520;DHT22;2782;52.362;10.012;2023-01-15T05:36:01;18.20;63.90
5520;DHT22;2782;52.362;10.012;2023-01-15T05:37:02;18.20;63.90
5520;DHT22;2782;52.362;10.012;2023-01-15T05:38:03;18.20;63.90
5520;DHT22;2782;52.362;10.012;2023-01-15T05:39:06;18.30;64.00
5520;DHT22;2782;52.362;10.012;2023-01-15T05:40:08;18.20;63.90
5520;DHT22;2782;52.362;10.012;2023-01-15T05:41:12;18.20;63.90
5520;DHT22;2782;52.362;10.012;2023-01-15T05:42:27;18.20;63.90
5520;DHT22;2782;52.362;10.012;2023-01-15T05:43:29;18.20;63.90
5520;DHT22;2782;52.362;10.012;2023-01-15T05:44:29;18.20;64.00
5520;DHT22;2782;52.362;10.012;2023-01-15T05:45:33;18.20;64.00
5520;DHT22;2782;52.362;10.012;2023-01-15T05:46:35;18.20;64.00
5520;DHT22;2782;52.362;10.012;2023-01-15T05:47:39;18.20;64.00
5520;DHT22;2782;52.362;10.012;2023-01-15T05:48:40;18.20;64.00
5520;DHT22;2782;52.362;10.012;2023-01-15T05:49:41;18.20;64.00
5520;DHT22;2782;52.362;10.012;2023-01-15T05:50:42;18.20;64.00
5520;DHT22;2782;52.362;10.012;2023-01-15T05:51:44;18.20;64.00
5520;DHT22;2782;52.362;10.012;2023-01-15T05:52:46;18.20;64.10
5520;DHT22;2782;52.362;10.012;2023-01-15T05:53:46;18.20;64.10
5520;DHT22;2782;52.362;10.012;2023-01-15T05:54:48;18.20;64.10
5520;DHT22;2782;52.362;10.012;2023-01-15T05:55:50;18.10;64.00
5520;DHT22;2782;52.362;10.012;2023-01-15T05:56:50;18.10;64.00
5520;DHT22;2782;52.362;10.012;2023-01-15T05:57:52;18.20;64.10
5520;DHT22;2782;52.362;10.012;2023-01-15T05:58:53;18.20;64.10
5520;DHT22;2782;52.362;10.012;2023-01-15T05:59:54;18.20;64.10
5520;DHT22;2782;52.362;10.012;2023-01-15T06:00:56;18.10;64.10
5520;DHT22;2782;52.362;10.012;2023-01-15T06:01:57;18.10;64.10
5520;DHT22;2782;52.362;10.012;2023-01-15T06:03:00;18.10;64.10
5520;DHT22;2782;52.362;10.012;2023-01-15T06:04:02;18.10;64.10
5520;DHT22;2782;52.362;10.012;2023-01-15T06:05:05;18.10;64.10
5520;DHT22;2782;52.362;10.012;2023-01-15T06:06:09;18.20;64.20
5520;DHT22;2782;52.362;10.012;2023-01-15T06:07:12;18.10;64.10
5520;DHT22;2782;52.362;10.012;2023-01-15T06:08:16;18.10;64.10
5520;DHT22;2782;52.362;10.012;2023-01-15T06:09:18;18.10;64.10
5520;DHT22;2782;52.362;10.012;2023-01-15T06:10:22;18.10;64.10
5520;DHT22;2782;52.362;10.012;2023-01-15T06:11:23;18.20;64.20
5520;DHT22;2782;52.362;10.012;2023-01-15T06:12:25;18.20;64.20
5520;DHT22;2782;52.362;10.012;2023-01-15T06:13:25;18.10;64.10
5520;DHT22;2782;52.362;10.012;2023-01-15T06:14:27;18.20;64.20
5520;DHT22;2782;52.362;10.012;2023-01-15T06:15:27;18.10;64.10
5520;DHT22;2782;52.362;10.012;2023-01-15T06:16:29;18.20;64.10
5520;DHT22;2782;52.362;10.012;2023-01-15T06:17:29;18.20;64.10
5520;DHT22;2782;52.362;10.012;2023-01-15T06:18:32;18.20;64.10
5520;DHT22;2782;52.362;10.012;2023-01-15T06:19:34;18.10;64.10
5520;DHT22;2782;52.362;10.012;2023-01-15T06:20:37;18.20;64.10
5520;DHT22;2782;52.362;10.012;2023-01-15T06:21:38;18.20;64.10
5520;DHT22;2782;52.362;10.012;2023-01-15T06:22:39;18.20;64.10
5520;DHT22;2782;52.362;10.012;2023-01-15T06:23:42;18.10;64.10
5520;DHT22;2782;52.362;10.012;2023-01-15T06:24:42;18.20;64.20
5520;DHT22;2782;52.362;10.012;2023-01-15T06:25:44;18.10;64.00
5520;DHT22;2782;52.362;10.012;2023-01-15T06:26:45;18.20;64.10
5520;DHT22;2782;52.362;10.012;2023-01-15T06:27:46;18.10;64.00
5520;DHT22;2782;52.362;10.012;2023-01-15T06:28:48;18.20;64.10
5520;DHT22;2782;52.362;10.012;2023-01-15T06:29:50;18.20;64.20
5520;DHT22;2782;52.362;10.012;2023-01-15T06:30:50;18.20;64.10
5520;DHT22;2782;52.362;10.012;2023-01-15T06:31:52;18.10;64.10
5520;DHT22;2782;52.362;10.012;2023-01-15T06:32:53;18.10;64.10
5520;DHT22;2782;52.362;10.012;2023-01-15T06:33:55;18.10;64.00
5520;DHT22;2782;52.362;10.012;2023-01-15T06:34:56;18.20;64.10
5520;DHT22;2782;52.362;10.012;2023-01-15T06:36:01;18.10;64.00
5520;DHT22;2782;52.362;10.012;2023-01-15T06:37:01;18.10;64.00
5520;DHT22;2782;52.362;10.012;2023-01-15T06:38:03;18.10;64.70
5520;DHT22;2782;52.362;10.012;2023-01-15T06:39:03;18.10;64.00
5520;DHT22;2782;52.362;10.012;2023-01-15T06:40:06;18.10;64.00
5520;DHT22;2782;52.362;10.012;2023-01-15T06:41:12;18.10;64.00
5520;DHT22;2782;52.362;10.012;2023-01-15T06:42:28;18.10;64.00
5520;DHT22;2782;52.362;10.012;2023-01-15T06:43:47;18.10;64.00
5520;DHT22;2782;52.362;10.012;2023-01-15T06:45:08;18.10;64.10
5520;DHT22;2782;52.362;10.012;2023-01-15T06:46:27;18.10;64.10
5520;DHT22;2782;52.362;10.012;2023-01-15T06:47:47;18.10;64.10